메인 페이지
METAR-TAF:

METAR-TAF

공항 :

막탄 세부 국제공항

세부, 필리핀

위도: 10-18-48N, 경도: 123-58-58E, 고도: 23m

현재 날씨관측

예보는 1 시간 9분 전, 13:00시(UTC)에 발표되었습니다.
4kt북서풍과 북동풍을 오가는
온도 29°C
습도 79%
기압 1010 hPa
시정 10km 이상
고도 2000ft 상공 구름 조금
고도 10000ft 상공 흐림

METAR: RPVM 251300Z 35004KT 310V040 9999 FEW020 OVC100 29/25 Q1010 NOSIG RMK A2983

시각: 22:09 (14:09 UTC)

예보

예보는 3 시간 9분 전, 11:00시(UTC)에 발표되었습니다.
예보 대상 시간: 25일 12시부터 26일 18시까지 (UTC)
남남서6kt
시정 10km 이상
고도 2000ft 상공 구름 조금
고도 25000ft 상공 구름 많음
일시적
25일 12시부터 25일 18시까지 (UTC)
여러 방향의 바람 2kt
일시적
25일 18시부터 25일 24시까지 (UTC)
시정: 8000m
고도 2000ft 상공 구름 보통
고도 10000ft 상공 흐림
약한비,

TAF: RPVM 251100Z 2512/2618 20006KT 9999 FEW020 BKN250 TEMPO 2512/2518 VRB02KT TEMPO 2518/2524 8000 -RA SCT020 OVC100

4,000개 이상의 공항 관측 자료 및 예보 (METAR 및 TAF 보고).

지도상에서 검색 가능한 기상관측소가 노란 점과 빨간 점으로 표시되어 있습니다.

기상관측소 명을 보려면 표시 위로 마우스를 이동하세요.

날씨 관측과 예보를 보려면 클릭하세요.

지도 변경 : 확대하려면 엑스 표시가 있는 녹색 버튼, 축소하려면 빼기 표시가 있는 녹색 버튼, 다음 페이지의 지도를 보려면 녹색 화살표를 클릭하세요.


METAR-TAF: